Terminal Aerodrome Forecast
Issued by NWS Northern Indiana

Home | Current Version | Previous Version | Text Only | Print | Product List | Glossary On
Versions: 1 2 3 4 5 6 7 8 9 10 11 12
000
FTUS43 KIWX 031721
TAFFWA
TAF
KFWA 031721Z 0318/0418 24010KT P6SM SCT060
     FM040300 24005KT P6SM VCTS BKN060CB
     FM040700 21005KT P6SM SCT040=

USA.gov is the U.S. government's official web portal to all federal, state and local government web resources and services.